Beverly Shores, Indiana
Current Conditions -  °F | °C
As of 4:55 AM on Friday 31 Oct 2014 (Local Time) from KMGC Reporting Station
Drizzle Drizzle  
Wind Chill: 33°   Ceiling: 2000
Heat Index: 41°   Visibility: 10mi
Dew Point: 34°   Wind: 16mph
Humidity: 76%   Direction: 330°NNW
Pressure: 30"   Gusts: 26mph
Location:  41.69°N, 86.98°W
Report Text: KMGC 310955Z AUTO 33014G23KT 10SM DZ BKN020 OVC027 05/01 A3000 RMK AO2
Loading
Personal Weather Stations






























Interactive Weather Map
Tropical Storm Tracking
New forecast layout! Learn more

10-Day Weather Forecast

Advertisements
Track Severe Weather on mobile